createdAt,value
2019-06-26T05:52:35.620Z,3.85
2019-06-26T05:55:09.523Z,6.03
2019-06-26T05:57:43.004Z,2.45
2019-06-26T06:00:16.533Z,9.83
2019-06-26T06:02:49.829Z,8.45
2019-06-26T06:05:23.484Z,4.80
2019-06-26T06:07:56.921Z,8.08
2019-06-26T06:10:30.292Z,10.18
2019-06-26T06:13:03.559Z,9.48
2019-06-26T06:15:36.676Z,4.70
2019-06-26T06:18:09.948Z,14.90
2019-06-26T06:20:43.543Z,8.10
2019-06-26T06:23:18.314Z,6.45
2019-06-26T06:25:51.573Z,11.60
2019-06-26T06:28:24.935Z,6.25
2019-06-26T06:30:58.128Z,10.23
2019-06-26T06:33:31.425Z,6.37
2019-06-26T06:36:04.537Z,10.65
2019-06-26T06:38:37.910Z,9.60
2019-06-26T06:41:10.916Z,7.17
2019-06-26T06:43:44.373Z,11.00
2019-06-26T06:46:17.842Z,10.88
2019-06-26T06:48:51.114Z,7.85
2019-06-26T06:51:24.396Z,8.18
2019-06-26T06:53:57.799Z,9.05
2019-06-26T06:56:30.799Z,9.40
2019-06-26T06:59:04.248Z,6.70
2019-06-26T07:01:37.671Z,7.78
2019-06-26T07:04:13.804Z,9.38
2019-06-26T07:06:47.065Z,8.73
2019-06-26T07:09:42.831Z,7.90
2019-06-26T07:12:16.408Z,3.67
2019-06-26T07:14:50.941Z,7.97
2019-06-26T07:17:24.605Z,7.17
2019-06-26T07:20:00.995Z,6.85
2019-06-26T07:22:34.953Z,10.43
2019-06-26T07:25:09.758Z,9.85
2019-06-26T07:27:42.943Z,4.08
2019-06-26T07:30:16.593Z,8.30
2019-06-26T07:32:49.912Z,6.72
2019-06-26T07:35:23.005Z,8.90
2019-06-26T07:37:59.884Z,8.45
2019-06-26T07:40:31.285Z,5.60
2019-06-26T07:43:05.213Z,8.75
2019-06-26T07:45:38.532Z,8.53
2019-06-26T07:48:11.845Z,5.58
2019-06-26T07:50:45.257Z,9.43
2019-06-26T07:53:18.531Z,8.30
2019-06-26T07:55:51.829Z,9.95
2019-06-26T07:58:25.025Z,8.50
2019-06-26T08:00:58.423Z,6.33
2019-06-26T08:03:31.851Z,7.90
2019-06-26T08:06:05.310Z,4.60
2019-06-26T08:08:38.603Z,5.58
2019-06-26T08:11:12.086Z,5.28
2019-06-26T08:13:46.215Z,7.05
2019-06-26T08:16:19.971Z,3.17
2019-06-26T08:18:53.672Z,5.95
2019-06-26T08:21:30.562Z,5.92
2019-06-26T08:24:09.289Z,8.35
2019-06-26T08:26:44.074Z,10.70
2019-06-26T08:29:17.355Z,6.00
2019-06-26T08:31:50.628Z,8.08
2019-06-26T08:34:23.879Z,6.45
2019-06-26T08:36:57.008Z,12.30
2019-06-26T08:39:30.260Z,9.93
2019-06-26T08:42:03.643Z,9.28
2019-06-26T08:44:36.954Z,6.65
2019-06-26T08:47:11.466Z,11.25
2019-06-26T08:49:44.774Z,12.15
2019-06-26T08:52:18.914Z,15.65
2019-06-26T08:54:51.944Z,12.50
2019-06-26T08:57:25.207Z,11.60
2019-06-26T08:59:58.727Z,8.28
2019-06-26T09:02:32.105Z,7.20
2019-06-26T09:05:07.794Z,19.70
2019-06-26T09:07:41.611Z,9.65
2019-06-26T09:10:15.718Z,12.30
2019-06-26T09:12:49.205Z,13.85
2019-06-26T09:15:22.380Z,12.58
2019-06-26T09:17:55.741Z,8.73
2019-06-26T09:20:42.312Z,9.15
2019-06-26T09:23:17.964Z,7.60
2019-06-26T09:25:51.468Z,9.88
2019-06-26T09:28:24.838Z,10.40
2019-06-26T09:30:58.137Z,11.83
2019-06-26T09:33:32.412Z,8.58
2019-06-26T09:36:07.012Z,10.93
2019-06-26T09:38:40.588Z,10.18
2019-06-26T09:41:13.912Z,8.65
2019-06-26T09:43:47.298Z,11.50
2019-06-26T09:46:20.548Z,12.45
2019-06-26T09:48:53.772Z,7.62
2019-06-26T09:51:27.239Z,10.15
2019-06-26T09:54:00.756Z,12.15
2019-06-26T09:56:35.949Z,11.95
2019-06-26T09:59:10.636Z,11.18
2019-06-26T10:01:44.142Z,9.68
2019-06-26T10:04:17.481Z,7.28
2019-06-26T10:06:50.973Z,8.63
2019-06-26T10:09:23.935Z,7.85
2019-06-26T10:11:57.193Z,9.68
2019-06-26T10:14:46.623Z,8.78
2019-06-26T10:17:05.507Z,8.08
2019-06-26T10:19:38.978Z,8.98
2019-06-26T10:22:12.400Z,9.70
2019-06-26T10:24:45.770Z,10.93
2019-06-26T10:27:19.131Z,8.23
2019-06-26T10:29:52.517Z,9.78
2019-06-26T10:32:25.797Z,11.80
2019-06-26T10:34:58.841Z,11.28
2019-06-26T10:37:32.441Z,9.65
2019-06-26T10:40:11.503Z,11.50
2019-06-26T10:42:45.246Z,13.25
2019-06-26T10:45:38.643Z,15.78
2019-06-26T10:50:51.188Z,13.93
2019-06-26T10:53:19.721Z,9.03
2019-06-26T10:55:54.578Z,10.32
2019-06-26T10:58:28.018Z,11.33
2019-06-26T11:01:04.407Z,11.75
2019-06-26T11:03:37.754Z,12.63
2019-06-26T11:06:11.136Z,13.70
2019-06-26T11:08:44.514Z,14.05
2019-06-26T11:11:18.181Z,11.65
2019-06-26T11:13:51.494Z,11.08
2019-06-26T11:16:24.843Z,14.07
2019-06-26T11:18:58.235Z,14.20
2019-06-26T11:21:31.548Z,12.95
2019-06-26T11:24:04.975Z,10.88
2019-06-26T11:26:38.426Z,14.73
2019-06-26T11:29:11.709Z,13.60
2019-06-26T11:31:45.135Z,18.23
2019-06-26T11:34:18.576Z,17.50
2019-06-26T11:37:02.997Z,12.47
2019-06-26T11:39:26.747Z,14.40
2019-06-26T11:41:59.993Z,11.63
2019-06-26T11:44:33.460Z,18.05
2019-06-26T11:47:07.150Z,20.05
2019-06-26T11:49:40.457Z,18.80
2019-06-26T11:52:13.746Z,21.95
2019-06-26T11:55:01.402Z,13.58
2019-06-26T11:57:23.432Z,20.35
2019-06-26T11:59:56.894Z,19.00
2019-06-26T12:02:30.146Z,16.42
2019-06-26T12:05:03.449Z,21.35
2019-06-26T12:07:36.723Z,18.32
2019-06-26T12:10:10.725Z,16.07
2019-06-26T12:12:44.142Z,18.67
2019-06-26T12:15:19.570Z,16.30
2019-06-26T12:17:52.833Z,17.90
2019-06-26T12:20:26.550Z,14.38
2019-06-26T12:22:59.925Z,32.78
2019-06-26T12:25:33.105Z,30.92
2019-06-26T12:28:06.379Z,28.20
2019-06-26T12:30:39.828Z,28.35
2019-06-26T12:33:13.264Z,21.15
2019-06-26T12:35:47.438Z,19.70
2019-06-26T12:38:22.229Z,23.92
2019-06-26T12:40:55.697Z,26.55
2019-06-26T12:43:30.074Z,23.50
2019-06-26T12:46:05.101Z,37.05
2019-06-26T12:48:38.589Z,24.25
2019-06-26T12:51:11.882Z,33.92
2019-06-26T12:53:45.570Z,30.88
2019-06-26T12:56:18.767Z,43.50
2019-06-26T12:58:52.298Z,30.50
2019-06-26T13:01:27.077Z,28.05
2019-06-26T13:04:00.781Z,19.57
2019-06-26T13:06:34.404Z,22.32
2019-06-26T13:09:09.431Z,14.95
2019-06-26T13:11:42.786Z,14.20
2019-06-26T13:14:16.071Z,13.53
2019-06-26T13:16:49.324Z,18.17
2019-06-26T13:19:22.657Z,19.27
2019-06-26T13:21:55.961Z,19.23
2019-06-26T13:24:29.318Z,15.15
2019-06-26T13:27:02.663Z,13.20
2019-06-26T13:29:36.188Z,14.90
2019-06-26T13:32:09.481Z,9.93
2019-06-26T13:34:43.565Z,9.60
2019-06-26T13:37:17.053Z,9.73
2019-06-26T13:39:58.720Z,12.37
2019-06-26T13:42:32.948Z,5.67
2019-06-26T13:45:10.925Z,5.25
2019-06-26T13:47:46.118Z,8.13
2019-06-26T13:50:21.549Z,5.80
2019-06-26T13:52:58.244Z,5.97
2019-06-26T13:55:31.688Z,11.68
2019-06-26T13:58:05.042Z,4.65
2019-06-26T14:00:38.471Z,7.08
2019-06-26T14:03:12.040Z,3.10
2019-06-26T14:05:45.246Z,7.92
2019-06-26T14:08:18.587Z,7.12
2019-06-26T14:10:51.905Z,5.75
2019-06-26T14:13:25.352Z,6.87
2019-06-26T14:15:58.803Z,4.80
2019-06-26T14:18:32.109Z,3.90
2019-06-26T14:21:05.388Z,1.67
2019-06-26T14:23:38.877Z,3.85
2019-06-26T14:26:12.183Z,1.95
2019-06-26T14:28:45.503Z,1.62
2019-06-26T14:31:19.410Z,5.85
2019-06-26T14:33:54.008Z,11.03
2019-06-26T14:36:37.608Z,8.35
2019-06-26T14:39:11.213Z,6.03
2019-06-26T14:41:44.524Z,4.25
2019-06-26T14:44:17.843Z,6.00
2019-06-26T14:46:51.100Z,3.70
2019-06-26T14:49:24.434Z,4.62
2019-06-26T14:51:57.709Z,5.55
2019-06-26T14:54:30.929Z,3.35
2019-06-26T14:57:04.229Z,6.65
2019-06-26T14:59:37.502Z,5.22
2019-06-26T15:02:11.349Z,12.95
2019-06-26T15:04:46.142Z,11.28
2019-06-26T15:07:20.669Z,5.85
2019-06-26T15:09:53.995Z,3.85
2019-06-26T15:12:27.458Z,3.62
2019-06-26T15:15:02.967Z,4.92
2019-06-26T15:17:36.333Z,4.28
2019-06-26T15:20:11.379Z,5.60
2019-06-26T15:22:44.905Z,5.60
2019-06-26T15:25:18.425Z,4.42
2019-06-26T15:27:52.338Z,6.12
2019-06-26T15:30:26.287Z,4.55
2019-06-26T15:32:59.623Z,3.65
2019-06-26T15:35:33.228Z,5.78
2019-06-26T15:38:06.701Z,6.15
2019-06-26T15:40:40.013Z,5.58
2019-06-26T15:43:13.373Z,8.98
2019-06-26T15:45:46.770Z,9.33
2019-06-26T15:48:21.237Z,6.92
2019-06-26T15:50:54.592Z,11.33
2019-06-26T15:53:29.259Z,7.28
2019-06-26T15:56:02.654Z,11.00
2019-06-26T15:58:36.004Z,18.35
2019-06-26T16:01:09.295Z,16.25
2019-06-26T16:03:42.803Z,11.12
2019-06-26T16:06:16.218Z,13.83
2019-06-26T16:08:49.502Z,4.97
2019-06-26T16:11:22.846Z,8.20
2019-06-26T16:13:56.168Z,5.62
2019-06-26T16:16:29.392Z,3.98
2019-06-26T16:19:04.054Z,2.92
2019-06-26T16:21:37.162Z,2.70
2019-06-26T16:24:10.578Z,3.08
2019-06-26T16:26:43.812Z,6.90
2019-06-26T16:29:17.147Z,3.77
2019-06-26T16:31:50.497Z,5.42
2019-06-26T16:34:23.729Z,5.17
2019-06-26T16:36:57.121Z,5.75
2019-06-26T16:39:30.344Z,2.75
2019-06-26T16:42:03.651Z,5.80
2019-06-26T16:44:36.960Z,5.15
2019-06-26T16:47:10.051Z,7.78
2019-06-26T16:49:43.360Z,9.13
2019-06-26T16:52:17.654Z,3.83
2019-06-26T16:54:52.262Z,7.35
2019-06-26T16:57:25.537Z,5.55
2019-06-26T17:00:08.762Z,4.20
2019-06-26T17:02:33.975Z,4.70
2019-06-26T17:05:08.033Z,5.72
2019-06-26T17:07:41.374Z,9.65
2019-06-26T17:10:15.404Z,5.33
2019-06-26T17:12:48.699Z,4.97
2019-06-26T17:15:22.154Z,3.42
2019-06-26T17:17:55.420Z,5.75
2019-06-26T17:20:35.141Z,4.20
2019-06-26T17:23:09.696Z,3.52
2019-06-26T17:25:43.147Z,6.35
2019-06-26T17:28:16.486Z,2.98
2019-06-26T17:30:52.781Z,3.90
2019-06-26T17:33:25.365Z,4.12
2019-06-26T17:35:58.718Z,6.22
2019-06-26T17:38:32.366Z,6.45
2019-06-26T17:41:05.712Z,2.40
2019-06-26T17:43:39.054Z,2.95
2019-06-26T17:46:12.428Z,3.52
2019-06-26T17:48:45.718Z,5.85
2019-06-26T17:51:18.983Z,5.83
2019-06-26T17:53:52.305Z,4.72
2019-06-26T17:56:25.594Z,6.50
2019-06-26T17:58:58.877Z,7.95
2019-06-26T18:01:32.110Z,7.58
2019-06-26T18:04:06.155Z,8.13
2019-06-26T18:06:41.732Z,8.78
2019-06-26T18:09:14.947Z,8.18
2019-06-26T18:11:48.259Z,10.82
2019-06-26T18:14:21.693Z,5.58
2019-06-26T18:16:54.915Z,11.70
2019-06-26T18:19:31.239Z,10.08
2019-06-26T18:22:25.271Z,5.35
2019-06-26T18:25:02.609Z,8.63
2019-06-26T18:27:41.699Z,7.40
2019-06-26T18:30:39.464Z,5.35
2019-06-26T18:33:16.875Z,4.35
2019-06-26T18:35:50.136Z,5.60
2019-06-26T18:38:23.424Z,8.20
2019-06-26T18:40:56.774Z,4.75
2019-06-26T18:43:30.128Z,7.80
2019-06-26T18:46:03.453Z,10.05
2019-06-26T18:48:36.735Z,7.92
2019-06-26T18:51:10.204Z,10.90
2019-06-26T18:53:53.142Z,7.15
2019-06-26T18:56:18.160Z,10.03
2019-06-26T18:58:51.526Z,7.22
2019-06-26T19:01:24.821Z,6.85
2019-06-26T19:03:58.302Z,12.33
2019-06-26T19:06:31.563Z,7.42
2019-06-26T19:09:10.171Z,6.83
2019-06-26T19:11:48.293Z,10.08
2019-06-26T19:14:21.730Z,12.43
2019-06-26T19:16:55.074Z,8.63
2019-06-26T19:19:28.320Z,10.80
2019-06-26T19:22:01.814Z,12.33
2019-06-26T19:24:35.133Z,6.20
2019-06-26T19:27:08.457Z,9.23
2019-06-26T19:29:41.768Z,14.50
2019-06-26T19:32:15.200Z,8.43
2019-06-26T19:34:48.509Z,8.43
2019-06-26T19:37:21.826Z,11.80
2019-06-26T19:39:55.294Z,16.70
2019-06-26T19:42:28.616Z,14.43
2019-06-26T19:45:02.031Z,19.67
2019-06-26T19:47:36.469Z,13.28
2019-06-26T19:50:10.661Z,18.85
2019-06-26T19:52:43.827Z,18.17
2019-06-26T19:55:17.336Z,23.20
2019-06-26T19:57:50.706Z,20.40
2019-06-26T20:00:24.249Z,27.30
2019-06-26T20:02:57.364Z,22.13
2019-06-26T20:05:30.615Z,20.12
2019-06-26T20:08:04.099Z,15.45
2019-06-26T20:10:37.463Z,17.57
2019-06-26T20:13:10.710Z,23.62
2019-06-26T20:15:43.999Z,19.75
2019-06-26T20:18:17.476Z,18.75
2019-06-26T20:20:50.889Z,18.32
2019-06-26T20:23:24.280Z,19.45
2019-06-26T20:25:57.604Z,15.65
2019-06-26T20:28:31.009Z,16.40
2019-06-26T20:31:04.539Z,16.65
2019-06-26T20:33:37.922Z,18.30
2019-06-26T20:36:11.537Z,12.73
2019-06-26T20:38:44.860Z,12.47
2019-06-26T20:41:18.220Z,14.10
2019-06-26T20:43:51.643Z,15.85
2019-06-26T20:46:25.904Z,12.90
2019-06-26T20:48:59.419Z,14.90
2019-06-26T20:51:32.850Z,13.60
2019-06-26T20:54:06.092Z,12.40
2019-06-26T20:56:39.427Z,15.65
2019-06-26T20:59:12.766Z,15.28
2019-06-26T21:01:50.846Z,12.58
2019-06-26T21:04:25.370Z,10.68
2019-06-26T21:07:00.214Z,16.17
2019-06-26T21:09:42.179Z,14.50
2019-06-26T21:12:22.748Z,15.50
2019-06-26T21:14:56.295Z,15.58
2019-06-26T21:17:29.908Z,13.68
2019-06-26T21:20:03.218Z,16.00
2019-06-26T21:22:36.553Z,15.88
2019-06-26T21:25:18.514Z,15.30
2019-06-26T21:27:45.027Z,17.95
2019-06-26T21:30:18.496Z,21.87
2019-06-26T21:32:51.745Z,18.62
2019-06-26T21:35:25.218Z,16.05
2019-06-26T21:37:58.819Z,14.85
2019-06-26T21:40:32.199Z,19.62
2019-06-26T21:43:05.458Z,14.15
2019-06-26T21:45:38.912Z,20.27
2019-06-26T21:48:12.245Z,17.10
2019-06-26T21:50:45.514Z,18.55
2019-06-26T21:53:45.290Z,17.75
2019-06-26T21:56:35.735Z,17.73
2019-06-26T21:59:26.575Z,17.62
2019-06-26T22:02:17.408Z,14.25
2019-06-26T22:04:52.420Z,14.83
2019-06-26T22:07:38.466Z,18.98
2019-06-26T22:10:31.387Z,17.67
2019-06-26T22:13:04.773Z,14.30
2019-06-26T22:15:38.136Z,16.40
2019-06-26T22:18:11.684Z,14.90
2019-06-26T22:20:45.060Z,13.38
2019-06-26T22:23:18.423Z,18.80
2019-06-26T22:25:51.724Z,17.50
2019-06-26T22:28:25.252Z,16.62
2019-06-26T22:30:58.655Z,20.17
2019-06-26T22:33:32.030Z,15.95
2019-06-26T22:36:05.299Z,15.43
2019-06-26T22:38:38.736Z,20.68
2019-06-26T22:41:11.996Z,20.57
2019-06-26T22:43:45.294Z,15.10
2019-06-26T22:46:26.656Z,19.27
2019-06-26T22:49:03.480Z,19.70
2019-06-26T22:51:36.790Z,24.70
2019-06-26T22:54:10.144Z,17.98
2019-06-26T22:56:44.477Z,14.65
2019-06-26T22:59:17.782Z,14.13
2019-06-26T23:01:51.157Z,16.67
2019-06-26T23:04:24.451Z,25.27
2019-06-26T23:06:57.817Z,20.50
2019-06-26T23:09:31.056Z,17.70
2019-06-26T23:12:04.384Z,19.92
2019-06-26T23:14:37.761Z,14.13
2019-06-26T23:17:11.223Z,13.43
2019-06-26T23:20:12.125Z,14.03
2019-06-26T23:22:45.407Z,18.00
2019-06-26T23:25:18.725Z,19.92
2019-06-26T23:27:52.121Z,13.15
2019-06-26T23:30:25.461Z,25.72
2019-06-26T23:32:58.807Z,24.02
2019-06-26T23:35:32.272Z,18.48
2019-06-26T23:38:05.539Z,14.53
2019-06-26T23:40:50.998Z,12.98
2019-06-26T23:43:24.545Z,12.15
2019-06-26T23:45:58.123Z,12.47
2019-06-26T23:48:31.479Z,18.48
2019-06-26T23:51:04.736Z,10.80
2019-06-26T23:53:38.420Z,11.33
2019-06-26T23:56:12.020Z,9.60
2019-06-26T23:58:45.357Z,15.23
